sensor_id;sensor_type;location;lat;lon;timestamp;temperature;humidity
21770;DHT22;11046;49.558;8.674;2023-02-01T00:00:25;4.40;99.90
21770;DHT22;11046;49.558;8.674;2023-02-01T00:03:25;4.40;99.90
21770;DHT22;11046;49.558;8.674;2023-02-01T00:06:26;4.30;99.90
21770;DHT22;11046;49.558;8.674;2023-02-01T00:09:27;4.30;99.90
21770;DHT22;11046;49.558;8.674;2023-02-01T00:12:27;4.40;99.90
21770;DHT22;11046;49.558;8.674;2023-02-01T00:15:28;4.40;99.90
21770;DHT22;11046;49.558;8.674;2023-02-01T00:18:29;4.40;99.90
21770;DHT22;11046;49.558;8.674;2023-02-01T00:21:30;4.40;99.90
21770;DHT22;11046;49.558;8.674;2023-02-01T00:24:31;4.50;99.90
21770;DHT22;11046;49.558;8.674;2023-02-01T00:27:31;4.40;99.90
21770;DHT22;11046;49.558;8.674;2023-02-01T00:30:32;4.40;99.90
21770;DHT22;11046;49.558;8.674;2023-02-01T00:33:33;4.40;99.90
21770;DHT22;11046;49.558;8.674;2023-02-01T00:36:34;4.40;99.90
21770;DHT22;11046;49.558;8.674;2023-02-01T00:39:35;4.40;99.90
21770;DHT22;11046;49.558;8.674;2023-02-01T00:42:36;4.40;99.90
21770;DHT22;11046;49.558;8.674;2023-02-01T00:45:36;4.50;99.90
21770;DHT22;11046;49.558;8.674;2023-02-01T00:48:37;4.40;99.90
21770;DHT22;11046;49.558;8.674;2023-02-01T00:51:37;4.40;99.90
21770;DHT22;11046;49.558;8.674;2023-02-01T00:54:38;4.50;99.90
21770;DHT22;11046;49.558;8.674;2023-02-01T00:57:38;4.50;99.90
21770;DHT22;11046;49.558;8.674;2023-02-01T01:00:39;4.50;99.90
21770;DHT22;11046;49.558;8.674;2023-02-01T01:03:42;4.50;99.90
21770;DHT22;11046;49.558;8.674;2023-02-01T01:06:43;4.50;99.90
21770;DHT22;11046;49.558;8.674;2023-02-01T01:09:43;4.60;99.90
21770;DHT22;11046;49.558;8.674;2023-02-01T01:12:45;4.60;99.90
21770;DHT22;11046;49.558;8.674;2023-02-01T01:15:45;4.60;99.90
21770;DHT22;11046;49.558;8.674;2023-02-01T01:18:46;4.60;99.90
21770;DHT22;11046;49.558;8.674;2023-02-01T01:21:47;4.60;99.90
21770;DHT22;11046;49.558;8.674;2023-02-01T01:24:47;4.60;99.90
21770;DHT22;11046;49.558;8.674;2023-02-01T01:27:48;4.60;99.90
21770;DHT22;11046;49.558;8.674;2023-02-01T01:30:48;4.60;99.90
21770;DHT22;11046;49.558;8.674;2023-02-01T01:33:51;4.60;99.90
21770;DHT22;11046;49.558;8.674;2023-02-01T01:36:52;4.60;99.90
21770;DHT22;11046;49.558;8.674;2023-02-01T01:39:53;4.60;99.90
21770;DHT22;11046;49.558;8.674;2023-02-01T01:42:57;4.60;99.90
21770;DHT22;11046;49.558;8.674;2023-02-01T01:45:57;4.70;99.90
21770;DHT22;11046;49.558;8.674;2023-02-01T01:49:04;4.60;99.90
21770;DHT22;11046;49.558;8.674;2023-02-01T01:52:07;4.60;99.90
21770;DHT22;11046;49.558;8.674;2023-02-01T01:55:08;4.60;99.90
21770;DHT22;11046;49.558;8.674;2023-02-01T01:58:13;4.60;99.90
21770;DHT22;11046;49.558;8.674;2023-02-01T02:01:15;4.60;99.90
21770;DHT22;11046;49.558;8.674;2023-02-01T02:04:17;4.60;99.90
21770;DHT22;11046;49.558;8.674;2023-02-01T02:07:23;4.60;99.90
21770;DHT22;11046;49.558;8.674;2023-02-01T02:10:25;4.60;99.90
21770;DHT22;11046;49.558;8.674;2023-02-01T02:13:49;4.60;99.90
21770;DHT22;11046;49.558;8.674;2023-02-01T02:23:45;4.70;99.90
21770;DHT22;11046;49.558;8.674;2023-02-01T02:27:17;4.70;99.90
21770;DHT22;11046;49.558;8.674;2023-02-01T02:33:57;4.70;99.90
21770;DHT22;11046;49.558;8.674;2023-02-01T02:40:21;4.70;99.90
21770;DHT22;11046;49.558;8.674;2023-02-01T02:43:37;4.70;99.90
21770;DHT22;11046;49.558;8.674;2023-02-01T02:50:41;4.60;99.90
21770;DHT22;11046;49.558;8.674;2023-02-01T02:54:24;4.60;99.90
21770;DHT22;11046;49.558;8.674;2023-02-01T02:57:45;4.50;99.90
21770;DHT22;11046;49.558;8.674;2023-02-01T03:01:04;4.50;99.90
21770;DHT22;11046;49.558;8.674;2023-02-01T03:04:23;4.50;99.90
21770;DHT22;11046;49.558;8.674;2023-02-01T03:11:06;4.40;99.90
21770;DHT22;11046;49.558;8.674;2023-02-01T03:14:07;4.40;99.90
21770;DHT22;11046;49.558;8.674;2023-02-01T03:17:13;4.40;99.90
21770;DHT22;11046;49.558;8.674;2023-02-01T03:20:17;4.40;99.90
21770;DHT22;11046;49.558;8.674;2023-02-01T03:23:23;4.50;99.90
21770;DHT22;11046;49.558;8.674;2023-02-01T03:26:27;4.40;99.90
21770;DHT22;11046;49.558;8.674;2023-02-01T03:29:36;4.40;99.90
21770;DHT22;11046;49.558;8.674;2023-02-01T03:32:40;4.40;99.90
21770;DHT22;11046;49.558;8.674;2023-02-01T03:36:15;4.40;99.90
21770;DHT22;11046;49.558;8.674;2023-02-01T03:39:25;4.40;99.90
21770;DHT22;11046;49.558;8.674;2023-02-01T03:42:40;4.50;99.90
21770;DHT22;11046;49.558;8.674;2023-02-01T03:45:45;4.40;99.90
21770;DHT22;11046;49.558;8.674;2023-02-01T03:48:48;4.50;99.90
21770;DHT22;11046;49.558;8.674;2023-02-01T03:51:51;4.50;99.90
21770;DHT22;11046;49.558;8.674;2023-02-01T03:54:53;4.50;99.90
21770;DHT22;11046;49.558;8.674;2023-02-01T03:57:58;4.50;99.90
21770;DHT22;11046;49.558;8.674;2023-02-01T04:01:02;4.50;99.90
21770;DHT22;11046;49.558;8.674;2023-02-01T04:04:06;4.50;99.90
21770;DHT22;11046;49.558;8.674;2023-02-01T04:07:07;4.50;99.90
21770;DHT22;11046;49.558;8.674;2023-02-01T04:10:09;4.50;99.90
21770;DHT22;11046;49.558;8.674;2023-02-01T04:13:10;4.50;99.90
21770;DHT22;11046;49.558;8.674;2023-02-01T04:16:11;4.50;99.90
21770;DHT22;11046;49.558;8.674;2023-02-01T04:19:11;4.60;99.90
21770;DHT22;11046;49.558;8.674;2023-02-01T04:22:12;4.60;99.90
21770;DHT22;11046;49.558;8.674;2023-02-01T04:25:12;4.50;99.90
21770;DHT22;11046;49.558;8.674;2023-02-01T04:28:13;4.50;99.90
21770;DHT22;11046;49.558;8.674;2023-02-01T04:31:17;4.50;99.90
21770;DHT22;11046;49.558;8.674;2023-02-01T04:34:25;4.50;99.90
21770;DHT22;11046;49.558;8.674;2023-02-01T04:37:26;4.50;99.90
21770;DHT22;11046;49.558;8.674;2023-02-01T04:40:27;4.50;99.90
21770;DHT22;11046;49.558;8.674;2023-02-01T04:43:27;4.50;99.90
21770;DHT22;11046;49.558;8.674;2023-02-01T04:46:28;4.50;99.90
21770;DHT22;11046;49.558;8.674;2023-02-01T04:49:28;4.40;99.90
21770;DHT22;11046;49.558;8.674;2023-02-01T04:52:29;4.50;99.90
21770;DHT22;11046;49.558;8.674;2023-02-01T04:55:29;4.50;99.90
21770;DHT22;11046;49.558;8.674;2023-02-01T04:58:31;4.50;99.90
21770;DHT22;11046;49.558;8.674;2023-02-01T05:01:31;4.40;99.90
21770;DHT22;11046;49.558;8.674;2023-02-01T05:04:32;4.50;99.90
21770;DHT22;11046;49.558;8.674;2023-02-01T05:07:33;4.50;99.90
21770;DHT22;11046;49.558;8.674;2023-02-01T05:10:34;4.60;99.90
21770;DHT22;11046;49.558;8.674;2023-02-01T05:13:34;4.70;99.90
21770;DHT22;11046;49.558;8.674;2023-02-01T05:16:50;4.70;99.90
21770;DHT22;11046;49.558;8.674;2023-02-01T05:19:51;4.80;99.90
21770;DHT22;11046;49.558;8.674;2023-02-01T05:22:51;4.80;99.90
21770;DHT22;11046;49.558;8.674;2023-02-01T05:25:52;4.80;99.90
21770;DHT22;11046;49.558;8.674;2023-02-01T05:28:52;4.80;99.90
21770;DHT22;11046;49.558;8.674;2023-02-01T05:31:53;4.80;99.90
21770;DHT22;11046;49.558;8.674;2023-02-01T05:34:53;4.70;99.90
21770;DHT22;11046;49.558;8.674;2023-02-01T05:37:54;4.80;99.90
21770;DHT22;11046;49.558;8.674;2023-02-01T05:40:55;4.80;99.90
21770;DHT22;11046;49.558;8.674;2023-02-01T05:43:55;4.80;99.90
21770;DHT22;11046;49.558;8.674;2023-02-01T05:46:56;4.80;99.90
21770;DHT22;11046;49.558;8.674;2023-02-01T05:49:56;4.80;99.90
21770;DHT22;11046;49.558;8.674;2023-02-01T05:52:57;4.80;99.90
21770;DHT22;11046;49.558;8.674;2023-02-01T05:55:58;4.80;99.90
21770;DHT22;11046;49.558;8.674;2023-02-01T05:58:58;4.70;99.90
21770;DHT22;11046;49.558;8.674;2023-02-01T06:01:59;4.70;99.90
21770;DHT22;11046;49.558;8.674;2023-02-01T06:04:59;4.70;99.90
21770;DHT22;11046;49.558;8.674;2023-02-01T06:08:00;4.60;99.90
21770;DHT22;11046;49.558;8.674;2023-02-01T06:11:05;4.60;99.90
21770;DHT22;11046;49.558;8.674;2023-02-01T06:14:05;4.60;99.90
21770;DHT22;11046;49.558;8.674;2023-02-01T06:17:08;4.60;99.90
21770;DHT22;11046;49.558;8.674;2023-02-01T06:20:09;4.60;99.90
21770;DHT22;11046;49.558;8.674;2023-02-01T06:23:10;4.60;99.90
21770;DHT22;11046;49.558;8.674;2023-02-01T06:26:10;4.50;99.90
21770;DHT22;11046;49.558;8.674;2023-02-01T06:29:11;4.50;99.90
21770;DHT22;11046;49.558;8.674;2023-02-01T06:32:12;4.40;99.90
21770;DHT22;11046;49.558;8.674;2023-02-01T06:35:13;4.40;99.90
21770;DHT22;11046;49.558;8.674;2023-02-01T06:38:16;4.50;99.90
21770;DHT22;11046;49.558;8.674;2023-02-01T06:41:17;4.50;99.90
21770;DHT22;11046;49.558;8.674;2023-02-01T06:44:18;4.50;99.90
21770;DHT22;11046;49.558;8.674;2023-02-01T06:47:18;4.50;99.90
21770;DHT22;11046;49.558;8.674;2023-02-01T06:50:19;4.40;99.90
21770;DHT22;11046;49.558;8.674;2023-02-01T06:53:20;4.40;99.90
21770;DHT22;11046;49.558;8.674;2023-02-01T06:56:21;4.30;99.90
21770;DHT22;11046;49.558;8.674;2023-02-01T06:59:22;4.30;99.90
21770;DHT22;11046;49.558;8.674;2023-02-01T07:02:23;4.30;99.90
21770;DHT22;11046;49.558;8.674;2023-02-01T07:05:23;4.30;99.90
21770;DHT22;11046;49.558;8.674;2023-02-01T07:08:26;4.40;99.90
21770;DHT22;11046;49.558;8.674;2023-02-01T07:11:27;4.40;99.90
21770;DHT22;11046;49.558;8.674;2023-02-01T07:14:28;4.40;99.90
21770;DHT22;11046;49.558;8.674;2023-02-01T07:17:29;4.40;99.90
21770;DHT22;11046;49.558;8.674;2023-02-01T07:20:29;4.40;99.90
21770;DHT22;11046;49.558;8.674;2023-02-01T07:23:30;4.30;99.90
21770;DHT22;11046;49.558;8.674;2023-02-01T07:26:31;4.30;99.90
21770;DHT22;11046;49.558;8.674;2023-02-01T07:29:31;4.30;99.90
21770;DHT22;11046;49.558;8.674;2023-02-01T07:32:32;4.30;99.90
21770;DHT22;11046;49.558;8.674;2023-02-01T07:35:33;4.40;99.90
21770;DHT22;11046;49.558;8.674;2023-02-01T07:38:35;4.50;99.90
21770;DHT22;11046;49.558;8.674;2023-02-01T07:41:37;4.50;99.90
21770;DHT22;11046;49.558;8.674;2023-02-01T07:44:38;4.60;99.90
21770;DHT22;11046;49.558;8.674;2023-02-01T07:47:39;4.70;99.90
21770;DHT22;11046;49.558;8.674;2023-02-01T07:50:39;4.70;99.90
21770;DHT22;11046;49.558;8.674;2023-02-01T07:53:40;4.70;99.90
21770;DHT22;11046;49.558;8.674;2023-02-01T07:56:41;4.60;99.90
21770;DHT22;11046;49.558;8.674;2023-02-01T07:59:42;4.60;99.90
21770;DHT22;11046;49.558;8.674;2023-02-01T08:03:04;4.60;99.90
21770;DHT22;11046;49.558;8.674;2023-02-01T08:06:05;4.60;99.90
21770;DHT22;11046;49.558;8.674;2023-02-01T08:09:07;4.60;99.90
21770;DHT22;11046;49.558;8.674;2023-02-01T08:12:11;4.70;99.90
21770;DHT22;11046;49.558;8.674;2023-02-01T08:15:12;4.70;99.90
21770;DHT22;11046;49.558;8.674;2023-02-01T08:18:12;4.80;99.90
21770;DHT22;11046;49.558;8.674;2023-02-01T08:21:19;4.80;99.90
21770;DHT22;11046;49.558;8.674;2023-02-01T08:24:20;4.90;99.90
21770;DHT22;11046;49.558;8.674;2023-02-01T08:27:21;4.90;99.90
21770;DHT22;11046;49.558;8.674;2023-02-01T08:30:22;4.90;99.90
21770;DHT22;11046;49.558;8.674;2023-02-01T08:33:22;5.00;99.90
21770;DHT22;11046;49.558;8.674;2023-02-01T08:36:24;5.00;99.90
21770;DHT22;11046;49.558;8.674;2023-02-01T08:39:25;5.10;99.90
21770;DHT22;11046;49.558;8.674;2023-02-01T08:42:26;5.10;99.90
21770;DHT22;11046;49.558;8.674;2023-02-01T08:45:45;5.10;99.90
21770;DHT22;11046;49.558;8.674;2023-02-01T08:48:47;5.20;99.90
21770;DHT22;11046;49.558;8.674;2023-02-01T08:51:48;5.20;99.90
21770;DHT22;11046;49.558;8.674;2023-02-01T08:54:48;5.30;99.90
21770;DHT22;11046;49.558;8.674;2023-02-01T08:57:49;5.20;99.90
21770;DHT22;11046;49.558;8.674;2023-02-01T09:00:50;5.20;99.90
21770;DHT22;11046;49.558;8.674;2023-02-01T09:03:51;5.20;99.90
21770;DHT22;11046;49.558;8.674;2023-02-01T09:06:51;5.30;99.90
21770;DHT22;11046;49.558;8.674;2023-02-01T09:09:52;5.40;99.90
21770;DHT22;11046;49.558;8.674;2023-02-01T09:12:54;5.40;99.90
21770;DHT22;11046;49.558;8.674;2023-02-01T09:15:55;5.50;99.90
21770;DHT22;11046;49.558;8.674;2023-02-01T09:18:56;5.60;99.90
21770;DHT22;11046;49.558;8.674;2023-02-01T09:21:56;5.70;99.90
21770;DHT22;11046;49.558;8.674;2023-02-01T09:24:57;5.70;99.90
21770;DHT22;11046;49.558;8.674;2023-02-01T09:27:57;5.70;99.90
21770;DHT22;11046;49.558;8.674;2023-02-01T09:30:59;5.70;99.90
21770;DHT22;11046;49.558;8.674;2023-02-01T09:34:00;5.70;99.90
21770;DHT22;11046;49.558;8.674;2023-02-01T09:37:01;5.60;99.90
21770;DHT22;11046;49.558;8.674;2023-02-01T09:40:02;5.50;99.90
21770;DHT22;11046;49.558;8.674;2023-02-01T09:46:32;5.60;99.90
21770;DHT22;11046;49.558;8.674;2023-02-01T09:49:37;5.50;99.90
21770;DHT22;11046;49.558;8.674;2023-02-01T09:52:44;5.50;99.90
21770;DHT22;11046;49.558;8.674;2023-02-01T09:55:51;5.50;99.90
21770;DHT22;11046;49.558;8.674;2023-02-01T10:02:17;5.60;99.90
21770;DHT22;11046;49.558;8.674;2023-02-01T10:05:36;5.60;99.90
21770;DHT22;11046;49.558;8.674;2023-02-01T10:18:32;5.70;99.90
21770;DHT22;11046;49.558;8.674;2023-02-01T10:21:51;5.70;99.90
21770;DHT22;11046;49.558;8.674;2023-02-01T10:28:15;5.70;99.90
21770;DHT22;11046;49.558;8.674;2023-02-01T10:31:18;5.80;99.90
21770;DHT22;11046;49.558;8.674;2023-02-01T10:34:26;5.80;99.90
21770;DHT22;11046;49.558;8.674;2023-02-01T10:37:30;5.80;99.90
21770;DHT22;11046;49.558;8.674;2023-02-01T10:40:32;5.80;99.90
21770;DHT22;11046;49.558;8.674;2023-02-01T10:43:33;5.90;99.90
21770;DHT22;11046;49.558;8.674;2023-02-01T10:46:34;5.90;99.90
21770;DHT22;11046;49.558;8.674;2023-02-01T10:49:55;5.90;99.90
21770;DHT22;11046;49.558;8.674;2023-02-01T10:53:11;5.80;99.90
21770;DHT22;11046;49.558;8.674;2023-02-01T10:56:13;5.80;99.90
21770;DHT22;11046;49.558;8.674;2023-02-01T10:59:20;5.80;99.90
21770;DHT22;11046;49.558;8.674;2023-02-01T11:02:31;5.80;99.90
21770;DHT22;11046;49.558;8.674;2023-02-01T11:05:43;5.80;99.90
21770;DHT22;11046;49.558;8.674;2023-02-01T11:08:50;5.90;99.90
21770;DHT22;11046;49.558;8.674;2023-02-01T11:14:57;6.10;99.90
21770;DHT22;11046;49.558;8.674;2023-02-01T11:18:18;6.10;99.90
21770;DHT22;11046;49.558;8.674;2023-02-01T11:21:20;6.10;99.90
21770;DHT22;11046;49.558;8.674;2023-02-01T11:24:47;6.10;99.90
21770;DHT22;11046;49.558;8.674;2023-02-01T11:27:50;6.00;99.90
21770;DHT22;11046;49.558;8.674;2023-02-01T11:30:54;6.00;99.90
21770;DHT22;11046;49.558;8.674;2023-02-01T11:33:59;6.00;99.90
21770;DHT22;11046;49.558;8.674;2023-02-01T11:37:01;6.00;99.90
21770;DHT22;11046;49.558;8.674;2023-02-01T11:40:43;6.00;99.90
21770;DHT22;11046;49.558;8.674;2023-02-01T11:44:02;5.90;99.90
21770;DHT22;11046;49.558;8.674;2023-02-01T11:47:23;6.00;99.90
21770;DHT22;11046;49.558;8.674;2023-02-01T11:50:37;6.00;99.90
21770;DHT22;11046;49.558;8.674;2023-02-01T12:00:42;6.00;99.90
21770;DHT22;11046;49.558;8.674;2023-02-01T12:17:28;6.10;99.80
21770;DHT22;11046;49.558;8.674;2023-02-01T12:27:47;6.10;99.70
21770;DHT22;11046;49.558;8.674;2023-02-01T12:30:54;6.10;99.80
21770;DHT22;11046;49.558;8.674;2023-02-01T12:47:44;6.10;99.70
21770;DHT22;11046;49.558;8.674;2023-02-01T12:50:52;6.10;99.70
21770;DHT22;11046;49.558;8.674;2023-02-01T12:54:24;6.10;99.60
21770;DHT22;11046;49.558;8.674;2023-02-01T12:57:31;6.20;99.40
21770;DHT22;11046;49.558;8.674;2023-02-01T13:00:40;6.20;99.30
21770;DHT22;11046;49.558;8.674;2023-02-01T13:06:57;6.10;99.20
21770;DHT22;11046;49.558;8.674;2023-02-01T13:10:11;6.10;99.30
21770;DHT22;11046;49.558;8.674;2023-02-01T13:13:28;6.20;99.40
21770;DHT22;11046;49.558;8.674;2023-02-01T13:16:35;6.20;99.20
21770;DHT22;11046;49.558;8.674;2023-02-01T13:23:22;6.10;98.90
21770;DHT22;11046;49.558;8.674;2023-02-01T13:26:25;6.10;98.90
21770;DHT22;11046;49.558;8.674;2023-02-01T13:29:28;6.10;98.90
21770;DHT22;11046;49.558;8.674;2023-02-01T13:42:57;6.20;98.80
21770;DHT22;11046;49.558;8.674;2023-02-01T13:46:05;6.10;98.50
21770;DHT22;11046;49.558;8.674;2023-02-01T13:49:25;6.10;98.40
21770;DHT22;11046;49.558;8.674;2023-02-01T13:52:38;6.10;98.50
21770;DHT22;11046;49.558;8.674;2023-02-01T13:55:42;6.10;98.60
21770;DHT22;11046;49.558;8.674;2023-02-01T13:58:46;6.10;98.50
21770;DHT22;11046;49.558;8.674;2023-02-01T14:01:47;6.10;98.50
21770;DHT22;11046;49.558;8.674;2023-02-01T14:04:50;6.10;98.50
21770;DHT22;11046;49.558;8.674;2023-02-01T14:11:31;6.10;98.30
21770;DHT22;11046;49.558;8.674;2023-02-01T14:17:35;6.20;98.40
21770;DHT22;11046;49.558;8.674;2023-02-01T14:23:42;6.20;98.40
21770;DHT22;11046;49.558;8.674;2023-02-01T14:26:48;6.10;98.40
21770;DHT22;11046;49.558;8.674;2023-02-01T14:29:58;6.10;98.40
21770;DHT22;11046;49.558;8.674;2023-02-01T14:33:11;6.10;98.10
21770;DHT22;11046;49.558;8.674;2023-02-01T14:36:18;6.20;98.20
21770;DHT22;11046;49.558;8.674;2023-02-01T14:39:25;6.30;98.20
21770;DHT22;11046;49.558;8.674;2023-02-01T14:45:47;6.30;97.80
21770;DHT22;11046;49.558;8.674;2023-02-01T14:48:50;6.20;97.90
21770;DHT22;11046;49.558;8.674;2023-02-01T14:51:52;6.20;97.80
21770;DHT22;11046;49.558;8.674;2023-02-01T14:54:55;6.20;97.70
21770;DHT22;11046;49.558;8.674;2023-02-01T14:57:58;6.20;97.80
21770;DHT22;11046;49.558;8.674;2023-02-01T15:01:16;6.20;97.80
21770;DHT22;11046;49.558;8.674;2023-02-01T15:04:18;6.20;97.60
21770;DHT22;11046;49.558;8.674;2023-02-01T15:07:19;6.20;97.60
21770;DHT22;11046;49.558;8.674;2023-02-01T15:10:21;6.20;97.50
21770;DHT22;11046;49.558;8.674;2023-02-01T15:13:26;6.20;97.40
21770;DHT22;11046;49.558;8.674;2023-02-01T15:16:27;6.20;97.30
21770;DHT22;11046;49.558;8.674;2023-02-01T15:19:29;6.20;97.30
21770;DHT22;11046;49.558;8.674;2023-02-01T15:22:31;6.20;97.20
21770;DHT22;11046;49.558;8.674;2023-02-01T15:25:34;6.20;97.10
21770;DHT22;11046;49.558;8.674;2023-02-01T15:28:37;6.20;97.20
21770;DHT22;11046;49.558;8.674;2023-02-01T15:31:47;6.20;97.10
21770;DHT22;11046;49.558;8.674;2023-02-01T15:34:49;6.20;97.00
21770;DHT22;11046;49.558;8.674;2023-02-01T15:37:50;6.20;96.90
21770;DHT22;11046;49.558;8.674;2023-02-01T15:41:07;6.30;97.00
21770;DHT22;11046;49.558;8.674;2023-02-01T15:47:29;6.30;96.70
21770;DHT22;11046;49.558;8.674;2023-02-01T15:50:31;6.30;96.80
21770;DHT22;11046;49.558;8.674;2023-02-01T15:53:32;6.30;96.70
21770;DHT22;11046;49.558;8.674;2023-02-01T15:56:36;6.30;96.70
21770;DHT22;11046;49.558;8.674;2023-02-01T15:59:43;6.30;96.60
21770;DHT22;11046;49.558;8.674;2023-02-01T16:02:57;6.30;96.60
21770;DHT22;11046;49.558;8.674;2023-02-01T16:06:00;6.30;96.70
21770;DHT22;11046;49.558;8.674;2023-02-01T16:09:09;6.20;96.60
21770;DHT22;11046;49.558;8.674;2023-02-01T16:15:24;6.20;96.50
21770;DHT22;11046;49.558;8.674;2023-02-01T16:18:25;6.30;96.60
21770;DHT22;11046;49.558;8.674;2023-02-01T16:21:25;6.30;96.50
21770;DHT22;11046;49.558;8.674;2023-02-01T16:24:26;6.30;96.50
21770;DHT22;11046;49.558;8.674;2023-02-01T16:27:26;6.30;96.50
21770;DHT22;11046;49.558;8.674;2023-02-01T16:30:28;6.30;96.50
21770;DHT22;11046;49.558;8.674;2023-02-01T16:33:28;6.40;96.50
21770;DHT22;11046;49.558;8.674;2023-02-01T16:36:29;6.30;96.50
21770;DHT22;11046;49.558;8.674;2023-02-01T16:39:29;6.30;96.50
21770;DHT22;11046;49.558;8.674;2023-02-01T16:42:33;6.30;96.50
21770;DHT22;11046;49.558;8.674;2023-02-01T16:45:34;6.20;96.50
21770;DHT22;11046;49.558;8.674;2023-02-01T16:48:37;6.20;96.50
21770;DHT22;11046;49.558;8.674;2023-02-01T16:51:40;6.30;96.60
21770;DHT22;11046;49.558;8.674;2023-02-01T16:54:41;6.30;96.60
21770;DHT22;11046;49.558;8.674;2023-02-01T16:57:42;6.30;96.70
21770;DHT22;11046;49.558;8.674;2023-02-01T17:00:44;6.30;96.60
21770;DHT22;11046;49.558;8.674;2023-02-01T17:03:44;6.30;96.70
21770;DHT22;11046;49.558;8.674;2023-02-01T17:06:46;6.20;96.70
21770;DHT22;11046;49.558;8.674;2023-02-01T17:09:49;6.30;96.80
21770;DHT22;11046;49.558;8.674;2023-02-01T17:12:49;6.20;96.80
21770;DHT22;11046;49.558;8.674;2023-02-01T17:16:08;6.20;96.90
21770;DHT22;11046;49.558;8.674;2023-02-01T17:19:13;6.20;96.90
21770;DHT22;11046;49.558;8.674;2023-02-01T17:22:15;6.30;96.90
21770;DHT22;11046;49.558;8.674;2023-02-01T17:25:19;6.30;96.90
21770;DHT22;11046;49.558;8.674;2023-02-01T17:28:20;6.30;96.90
21770;DHT22;11046;49.558;8.674;2023-02-01T17:31:21;6.30;96.90
21770;DHT22;11046;49.558;8.674;2023-02-01T17:34:21;6.20;97.30
21770;DHT22;11046;49.558;8.674;2023-02-01T17:37:29;6.30;96.90
21770;DHT22;11046;49.558;8.674;2023-02-01T17:40:30;6.20;96.90
21770;DHT22;11046;49.558;8.674;2023-02-01T17:43:31;6.20;96.90
21770;DHT22;11046;49.558;8.674;2023-02-01T17:46:31;6.20;97.00
21770;DHT22;11046;49.558;8.674;2023-02-01T17:49:32;6.20;96.90
21770;DHT22;11046;49.558;8.674;2023-02-01T17:52:35;6.20;97.00
21770;DHT22;11046;49.558;8.674;2023-02-01T17:55:39;6.20;96.90
21770;DHT22;11046;49.558;8.674;2023-02-01T17:58:39;6.20;96.90
21770;DHT22;11046;49.558;8.674;2023-02-01T18:01:40;6.20;96.90
21770;DHT22;11046;49.558;8.674;2023-02-01T18:04:41;6.20;96.90
21770;DHT22;11046;49.558;8.674;2023-02-01T18:07:41;6.20;97.00
21770;DHT22;11046;49.558;8.674;2023-02-01T18:10:43;6.10;97.00
21770;DHT22;11046;49.558;8.674;2023-02-01T18:13:43;6.10;97.10
21770;DHT22;11046;49.558;8.674;2023-02-01T18:16:44;6.10;97.10
21770;DHT22;11046;49.558;8.674;2023-02-01T18:19:44;6.00;97.10
21770;DHT22;11046;49.558;8.674;2023-02-01T18:22:45;6.00;97.10
21770;DHT22;11046;49.558;8.674;2023-02-01T18:25:51;6.00;97.20
21770;DHT22;11046;49.558;8.674;2023-02-01T18:28:51;6.00;97.30
21770;DHT22;11046;49.558;8.674;2023-02-01T18:31:52;6.00;97.20
21770;DHT22;11046;49.558;8.674;2023-02-01T18:34:52;6.00;97.20
21770;DHT22;11046;49.558;8.674;2023-02-01T18:37:54;6.00;97.20
21770;DHT22;11046;49.558;8.674;2023-02-01T18:40:55;6.00;97.20
21770;DHT22;11046;49.558;8.674;2023-02-01T18:43:57;6.00;97.20
21770;DHT22;11046;49.558;8.674;2023-02-01T18:46:58;6.00;97.20
21770;DHT22;11046;49.558;8.674;2023-02-01T18:49:59;6.00;97.30
21770;DHT22;11046;49.558;8.674;2023-02-01T18:53:02;6.00;97.20
21770;DHT22;11046;49.558;8.674;2023-02-01T18:56:03;6.00;97.30
21770;DHT22;11046;49.558;8.674;2023-02-01T18:59:03;6.00;97.30
21770;DHT22;11046;49.558;8.674;2023-02-01T19:02:04;6.00;97.30
21770;DHT22;11046;49.558;8.674;2023-02-01T19:05:07;6.00;97.30
21770;DHT22;11046;49.558;8.674;2023-02-01T19:08:08;6.00;97.30
21770;DHT22;11046;49.558;8.674;2023-02-01T19:11:09;6.00;97.30
21770;DHT22;11046;49.558;8.674;2023-02-01T19:14:09;6.00;97.30
21770;DHT22;11046;49.558;8.674;2023-02-01T19:17:10;6.00;97.30
21770;DHT22;11046;49.558;8.674;2023-02-01T19:20:15;6.00;97.30
21770;DHT22;11046;49.558;8.674;2023-02-01T19:23:17;6.10;97.20
21770;DHT22;11046;49.558;8.674;2023-02-01T19:26:18;6.10;97.30
21770;DHT22;11046;49.558;8.674;2023-02-01T19:29:18;6.10;97.20
21770;DHT22;11046;49.558;8.674;2023-02-01T19:32:19;6.10;97.30
21770;DHT22;11046;49.558;8.674;2023-02-01T19:35:20;6.10;97.30
21770;DHT22;11046;49.558;8.674;2023-02-01T19:38:20;6.10;97.20
21770;DHT22;11046;49.558;8.674;2023-02-01T19:41:21;6.10;97.30
21770;DHT22;11046;49.558;8.674;2023-02-01T19:44:22;6.10;97.30
21770;DHT22;11046;49.558;8.674;2023-02-01T19:47:22;6.00;97.30
21770;DHT22;11046;49.558;8.674;2023-02-01T19:50:23;6.10;97.40
21770;DHT22;11046;49.558;8.674;2023-02-01T19:53:24;6.10;97.40
21770;DHT22;11046;49.558;8.674;2023-02-01T19:56:26;6.10;97.40
21770;DHT22;11046;49.558;8.674;2023-02-01T19:59:27;6.10;97.40
21770;DHT22;11046;49.558;8.674;2023-02-01T20:02:28;6.10;97.30
21770;DHT22;11046;49.558;8.674;2023-02-01T20:05:28;6.00;97.40
21770;DHT22;11046;49.558;8.674;2023-02-01T20:08:29;6.00;97.50
21770;DHT22;11046;49.558;8.674;2023-02-01T20:11:30;6.10;97.50
21770;DHT22;11046;49.558;8.674;2023-02-01T20:14:31;6.10;97.50
21770;DHT22;11046;49.558;8.674;2023-02-01T20:17:31;6.10;97.50
21770;DHT22;11046;49.558;8.674;2023-02-01T20:20:35;6.10;97.50
21770;DHT22;11046;49.558;8.674;2023-02-01T20:23:35;6.10;97.50
21770;DHT22;11046;49.558;8.674;2023-02-01T20:26:37;6.10;97.50
21770;DHT22;11046;49.558;8.674;2023-02-01T20:29:38;6.10;97.50
21770;DHT22;11046;49.558;8.674;2023-02-01T20:32:40;6.10;97.60
21770;DHT22;11046;49.558;8.674;2023-02-01T20:35:44;6.10;97.60
21770;DHT22;11046;49.558;8.674;2023-02-01T20:38:45;6.20;97.60
21770;DHT22;11046;49.558;8.674;2023-02-01T20:41:45;6.20;97.50
21770;DHT22;11046;49.558;8.674;2023-02-01T20:44:46;6.20;97.50
21770;DHT22;11046;49.558;8.674;2023-02-01T20:47:50;6.30;97.40
21770;DHT22;11046;49.558;8.674;2023-02-01T20:50:53;6.30;97.40
21770;DHT22;11046;49.558;8.674;2023-02-01T20:53:54;6.20;97.40
21770;DHT22;11046;49.558;8.674;2023-02-01T20:56:54;6.30;97.40
21770;DHT22;11046;49.558;8.674;2023-02-01T20:59:55;6.20;97.40
21770;DHT22;11046;49.558;8.674;2023-02-01T21:02:56;6.30;97.40
21770;DHT22;11046;49.558;8.674;2023-02-01T21:05:58;6.30;97.40
21770;DHT22;11046;49.558;8.674;2023-02-01T21:08:59;6.30;97.40
21770;DHT22;11046;49.558;8.674;2023-02-01T21:11:59;6.30;97.30
21770;DHT22;11046;49.558;8.674;2023-02-01T21:15:00;6.30;97.40
21770;DHT22;11046;49.558;8.674;2023-02-01T21:18:02;6.30;97.30
21770;DHT22;11046;49.558;8.674;2023-02-01T21:21:08;6.30;97.40
21770;DHT22;11046;49.558;8.674;2023-02-01T21:24:09;6.30;97.40
21770;DHT22;11046;49.558;8.674;2023-02-01T21:27:10;6.30;97.40
21770;DHT22;11046;49.558;8.674;2023-02-01T21:30:11;6.20;97.40
21770;DHT22;11046;49.558;8.674;2023-02-01T21:33:12;6.30;97.50
21770;DHT22;11046;49.558;8.674;2023-02-01T21:36:17;6.30;97.50
21770;DHT22;11046;49.558;8.674;2023-02-01T21:39:18;6.20;97.80